Time;durP1;ratioP1;P1;durP2;ratioP2;P2;SDS_P1;SDS_P2;PMS_P1;PMS_P2;Temp;Humidity;BMP_temperature;BMP_pressure;BME280_temperature;BME280_humidity;BME280_pressure;Samples;Min_cycle;Max_cycle;Signal;HPM_P1;HPM_P2
2023/07/25 00:01:34;;;;;;;9.57;6.00;;;13.70;99.90;;;;;;5073079;28;20243;-90
2023/07/25 00:04:05;;;;;;;8.43;6.03;;;13.90;99.90;;;;;;5091614;28;20326;-85
2023/07/25 00:06:40;;;;;;;8.13;5.97;;;13.90;99.90;;;;;;5099809;28;20263;-86
2023/07/25 00:09:11;;;;;;;8.32;5.43;;;14.00;99.90;;;;;;5102949;28;20230;-84
2023/07/25 00:11:41;;;;;;;8.27;5.43;;;14.10;99.90;;;;;;5094093;28;20306;-85
2023/07/25 00:14:12;;;;;;;7.75;5.60;;;14.20;99.90;;;;;;5091803;28;20302;-86
2023/07/25 00:16:43;;;;;;;8.52;5.60;;;14.20;99.90;;;;;;5086711;28;20710;-86
2023/07/25 00:19:14;;;;;;;8.13;5.53;;;14.40;99.90;;;;;;5088299;28;20223;-87
2023/07/25 00:21:48;;;;;;;9.55;5.90;;;14.40;99.90;;;;;;5088950;28;20191;-88
2023/07/25 00:24:19;;;;;;;11.55;5.80;;;14.50;99.90;;;;;;5091207;28;20207;-86
2023/07/25 00:26:50;;;;;;;11.85;6.60;;;14.50;99.90;;;;;;5088497;28;20199;-86
2023/07/25 00:29:21;;;;;;;9.15;6.00;;;14.60;99.90;;;;;;5093188;28;20195;-87
2023/07/25 00:31:51;;;;;;;8.57;6.18;;;14.60;99.90;;;;;;5080232;28;20200;-85
2023/07/25 00:34:22;;;;;;;8.50;5.90;;;14.70;99.90;;;;;;5072440;28;20223;-85
2023/07/25 00:36:57;;;;;;;8.77;5.97;;;14.70;99.90;;;;;;5084585;28;20717;-85
2023/07/25 00:39:28;;;;;;;11.57;6.35;;;14.70;99.90;;;;;;5094880;28;20282;-86
2023/07/25 00:41:58;;;;;;;9.90;5.85;;;14.70;99.90;;;;;;5077142;28;20199;-87
2023/07/25 00:44:30;;;;;;;11.65;6.18;;;14.80;99.90;;;;;;5093864;28;20190;-87
2023/07/25 00:47:00;;;;;;;7.82;5.60;;;14.90;99.90;;;;;;5091177;28;20261;-87
2023/07/25 00:49:32;;;;;;;10.18;5.70;;;15.00;99.90;;;;;;5086088;28;20195;-84
2023/07/25 00:52:05;;;;;;;7.55;5.50;;;15.10;99.90;;;;;;5089823;28;20282;-86
2023/07/25 00:54:36;;;;;;;8.57;5.65;;;15.20;99.90;;;;;;5092779;28;20222;-86
2023/07/25 00:57:07;;;;;;;9.88;5.15;;;15.30;99.90;;;;;;5084390;28;20191;-86
2023/07/25 00:59:38;;;;;;;16.00;6.72;;;15.40;99.90;;;;;;5084438;28;20565;-86
2023/07/25 01:02:09;;;;;;;6.57;5.50;;;15.40;99.90;;;;;;5091280;28;20241;-86
2023/07/25 01:04:41;;;;;;;7.82;5.43;;;15.50;99.90;;;;;;5093501;28;20712;-87
2023/07/25 01:07:15;;;;;;;7.35;5.30;;;15.60;99.90;;;;;;5091715;28;20226;-87
2023/07/25 01:09:47;;;;;;;10.13;5.85;;;15.70;99.90;;;;;;5090302;28;20202;-87
2023/07/25 01:12:18;;;;;;;8.90;5.80;;;15.80;99.90;;;;;;5089108;28;20282;-86
2023/07/25 01:14:49;;;;;;;8.57;5.32;;;15.90;99.90;;;;;;5090610;28;20206;-86
2023/07/25 01:17:24;;;;;;;6.90;4.88;;;15.90;99.90;;;;;;5078006;28;20226;-85
2023/07/25 01:19:56;;;;;;;10.65;5.57;;;16.00;99.90;;;;;;5086551;28;20290;-84
2023/07/25 01:22:30;;;;;;;9.93;5.75;;;16.00;99.90;;;;;;5091949;28;20275;-85
2023/07/25 01:25:04;;;;;;;12.77;5.45;;;16.00;99.90;;;;;;5085493;28;20586;-84
2023/07/25 01:27:34;;;;;;;8.63;5.30;;;16.20;99.90;;;;;;5088450;28;20249;-85
2023/07/25 01:30:06;;;;;;;10.15;5.15;;;16.40;99.90;;;;;;5104212;28;20242;-84
2023/07/25 01:32:38;;;;;;;7.63;4.82;;;16.50;99.90;;;;;;5091063;28;20249;-84
2023/07/25 01:35:09;;;;;;;9.95;5.55;;;16.60;99.90;;;;;;5090608;28;20742;-86
2023/07/25 01:37:40;;;;;;;12.70;5.30;;;16.70;99.90;;;;;;5089112;28;20302;-85
2023/07/25 01:40:14;;;;;;;8.27;4.78;;;16.80;99.90;;;;;;5091293;28;20202;-84
2023/07/25 01:42:45;;;;;;;8.60;4.82;;;16.90;99.90;;;;;;5087172;28;20206;-86
2023/07/25 01:45:18;;;;;;;11.30;5.35;;;16.90;99.90;;;;;;5090745;28;20190;-86
2023/07/25 01:47:49;;;;;;;7.70;4.65;;;17.00;99.90;;;;;;5071272;28;20695;-86
2023/07/25 01:50:20;;;;;;;8.68;4.40;;;17.10;99.90;;;;;;5070728;28;20695;-86
2023/07/25 01:52:51;;;;;;;6.18;4.15;;;17.20;99.90;;;;;;5071077;28;20726;-84
2023/07/25 01:55:24;;;;;;;7.15;4.15;;;17.30;99.90;;;;;;5085643;28;20233;-85
2023/07/25 01:57:54;;;;;;;8.75;3.97;;;17.40;99.90;;;;;;5089815;28;20199;-84
2023/07/25 02:00:25;;;;;;;8.43;4.30;;;17.40;99.90;;;;;;5083962;28;20219;-84
2023/07/25 02:02:56;;;;;;;7.35;4.25;;;17.40;99.90;;;;;;5089863;28;20219;-85
2023/07/25 02:05:27;;;;;;;7.35;3.88;;;17.50;99.90;;;;;;5089635;28;20221;-83
2023/07/25 02:07:57;;;;;;;8.25;4.32;;;17.60;99.90;;;;;;5072366;28;20279;-84
2023/07/25 02:10:32;;;;;;;7.18;3.55;;;17.70;99.90;;;;;;5077522;28;20279;-87
2023/07/25 02:13:02;;;;;;;7.43;3.60;;;17.70;99.90;;;;;;5084256;28;20263;-86
2023/07/25 02:15:33;;;;;;;9.43;3.92;;;17.80;99.90;;;;;;5071311;28;20651;-89
2023/07/25 02:18:05;;;;;;;7.72;3.25;;;17.90;99.90;;;;;;5071245;28;20275;-86
2023/07/25 02:20:36;;;;;;;6.60;2.70;;;17.90;99.90;;;;;;5080511;28;20274;-86
2023/07/25 02:23:09;;;;;;;6.32;2.53;;;18.10;99.90;;;;;;5071419;28;20287;-88
2023/07/25 02:25:45;;;;;;;7.35;3.78;;;18.10;99.90;;;;;;5071856;28;20692;-88
2023/07/25 02:28:16;;;;;;;5.55;2.70;;;18.30;99.90;;;;;;5085025;28;20654;-86
2023/07/25 02:30:48;;;;;;;7.63;3.33;;;18.30;99.90;;;;;;5073987;28;20203;-86
2023/07/25 02:33:20;;;;;;;6.65;3.60;;;18.40;99.90;;;;;;5071166;28;20230;-87
2023/07/25 02:35:51;;;;;;;4.80;2.40;;;18.50;99.90;;;;;;5072472;28;20298;-88
2023/07/25 02:38:22;;;;;;;3.05;1.90;;;18.60;99.90;;;;;;5078448;28;20217;-86
2023/07/25 02:40:55;;;;;;;4.38;2.08;;;18.70;99.90;;;;;;5078755;28;20270;-86
2023/07/25 02:43:27;;;;;;;4.05;2.00;;;18.80;99.90;;;;;;5095828;28;20661;-86
2023/07/25 02:45:57;;;;;;;4.30;2.10;;;18.90;99.90;;;;;;5108700;28;20204;-86
2023/07/25 02:48:30;;;;;;;3.03;2.30;;;18.90;99.90;;;;;;5109037;28;20247;-88
2023/07/25 02:51:04;;;;;;;3.15;2.00;;;19.00;99.90;;;;;;5107212;28;20283;-88
2023/07/25 02:53:35;;;;;;;4.85;2.05;;;19.00;99.90;;;;;;5107631;28;20196;-88
2023/07/25 02:56:11;;;;;;;3.78;1.92;;;19.10;99.90;;;;;;5101160;28;20226;-89
2023/07/25 02:58:41;;;;;;;3.22;1.75;;;19.20;99.90;;;;;;5092941;28;20271;-87
2023/07/25 03:01:12;;;;;;;3.40;1.73;;;19.20;99.90;;;;;;5090966;28;20221;-86
2023/07/25 03:03:44;;;;;;;4.53;1.67;;;19.30;99.90;;;;;;5101163;28;20223;-87
2023/07/25 03:06:16;;;;;;;3.25;1.80;;;19.30;99.90;;;;;;5095386;28;20206;-86
2023/07/25 03:08:48;;;;;;;4.15;1.60;;;19.40;99.90;;;;;;5108275;28;20192;-87
2023/07/25 03:11:21;;;;;;;1.85;1.40;;;19.40;99.90;;;;;;5110689;28;20183;-85
2023/07/25 03:13:55;;;;;;;2.20;1.40;;;19.40;99.90;;;;;;5099565;28;20184;-88
2023/07/25 03:16:29;;;;;;;4.03;1.75;;;19.50;99.90;;;;;;5109373;28;20274;-88
2023/07/25 03:19:01;;;;;;;3.90;1.90;;;19.50;99.90;;;;;;5089120;28;20200;-86
2023/07/25 03:21:36;;;;;;;4.32;1.60;;;19.50;99.90;;;;;;5092278;28;20198;-88
2023/07/25 03:24:08;;;;;;;5.50;1.77;;;19.60;99.90;;;;;;5096515;28;20201;-87
2023/07/25 03:26:42;;;;;;;4.90;1.65;;;19.70;99.90;;;;;;5081309;28;20196;-87
2023/07/25 03:29:15;;;;;;;3.67;1.70;;;19.50;99.90;;;;;;5087019;28;20219;-91
2023/07/25 03:31:47;;;;;;;4.38;1.65;;;19.50;99.90;;;;;;5080525;28;20208;-90
2023/07/25 03:34:19;;;;;;;3.75;1.63;;;19.30;99.90;;;;;;5075840;28;20204;-86
2023/07/25 03:36:51;;;;;;;3.03;1.88;;;19.10;99.90;;;;;;5076339;28;20235;-88
2023/07/25 03:39:23;;;;;;;4.18;1.85;;;19.00;99.90;;;;;;5094365;28;20226;-89
2023/07/25 03:41:58;;;;;;;3.38;2.00;;;18.90;99.90;;;;;;5089909;28;20289;-90
2023/07/25 03:44:30;;;;;;;4.35;2.00;;;18.70;99.90;;;;;;5090357;28;20278;-88
2023/07/25 03:47:01;;;;;;;3.08;1.63;;;18.60;99.90;;;;;;5088312;28;20387;-92
2023/07/25 03:49:34;;;;;;;3.83;1.70;;;18.50;99.90;;;;;;5090959;28;20561;-91
2023/07/25 03:52:05;;;;;;;2.72;1.73;;;18.50;99.90;;;;;;5093238;28;20286;-91
2023/07/25 03:54:37;;;;;;;2.65;1.50;;;18.60;99.90;;;;;;5088999;28;20195;-89
2023/07/25 03:57:10;;;;;;;3.15;1.60;;;18.60;99.90;;;;;;5093241;28;20264;-90
2023/07/25 03:59:41;;;;;;;3.47;1.50;;;18.70;99.90;;;;;;5091948;28;20940;-88
2023/07/25 04:02:12;;;;;;;3.53;1.65;;;18.70;99.90;;;;;;5075991;28;20236;-87
2023/07/25 04:04:44;;;;;;;5.55;1.83;;;18.90;99.90;;;;;;5085061;28;20207;-87
2023/07/25 04:07:14;;;;;;;4.72;1.63;;;19.00;99.90;;;;;;5085561;28;20204;-86
2023/07/25 04:09:46;;;;;;;8.35;1.85;;;19.10;99.90;;;;;;5108247;28;20218;-84
2023/07/25 04:12:21;;;;;;;2.78;1.30;;;19.20;99.90;;;;;;5107870;28;20714;-86
2023/07/25 04:14:52;;;;;;;3.70;1.48;;;19.20;99.90;;;;;;5095794;28;20190;-84
2023/07/25 04:17:23;;;;;;;4.03;1.58;;;19.10;99.90;;;;;;5085217;28;20195;-85
2023/07/25 04:19:54;;;;;;;1.92;1.58;;;19.00;99.90;;;;;;5087022;28;20195;-85
2023/07/25 04:22:25;;;;;;;4.53;1.70;;;18.90;99.90;;;;;;5077231;28;20268;-83
2023/07/25 04:24:56;;;;;;;1.70;1.30;;;18.80;99.90;;;;;;5072987;28;20267;-86
2023/07/25 04:27:30;;;;;;;1.73;1.38;;;18.70;99.90;;;;;;5074619;28;20659;-84
2023/07/25 04:30:01;;;;;;;4.03;1.25;;;18.50;99.90;;;;;;5077985;28;20198;-86
2023/07/25 04:32:32;;;;;;;2.95;1.45;;;18.50;99.90;;;;;;5072957;28;20192;-86
2023/07/25 04:35:04;;;;;;;2.85;1.20;;;18.50;99.90;;;;;;5076025;28;20250;-84
2023/07/25 04:37:35;;;;;;;2.70;1.35;;;18.40;99.90;;;;;;5084943;28;20195;-84
2023/07/25 04:40:06;;;;;;;1.85;1.38;;;18.30;99.90;;;;;;5086948;28;20191;-86
2023/07/25 04:42:39;;;;;;;3.05;1.50;;;18.30;99.90;;;;;;5093161;28;20194;-86
2023/07/25 04:45:10;;;;;;;3.25;1.67;;;18.30;99.90;;;;;;5093198;28;20195;-84
2023/07/25 04:47:41;;;;;;;3.92;1.73;;;18.40;99.90;;;;;;5093806;28;20219;-87
2023/07/25 04:50:13;;;;;;;3.13;1.58;;;18.50;99.90;;;;;;5093247;28;20220;-88
2023/07/25 04:52:45;;;;;;;2.55;1.50;;;18.60;99.90;;;;;;5085976;28;20238;-86
2023/07/25 04:55:17;;;;;;;3.55;1.60;;;18.60;99.90;;;;;;5083260;28;20314;-86
2023/07/25 04:57:51;;;;;;;3.22;1.85;;;18.50;99.90;;;;;;5075430;28;20234;-87
2023/07/25 05:00:22;;;;;;;3.30;1.60;;;18.40;99.90;;;;;;5073744;28;20206;-86
2023/07/25 05:02:53;;;;;;;3.55;1.60;;;18.40;99.90;;;;;;5072602;28;20224;-86
2023/07/25 05:05:25;;;;;;;2.92;1.70;;;18.30;99.90;;;;;;5072693;28;20570;-87
2023/07/25 05:07:56;;;;;;;2.45;1.38;;;18.20;99.90;;;;;;5081050;28;20202;-86
2023/07/25 05:10:28;;;;;;;2.35;1.70;;;18.20;99.90;;;;;;5092772;28;20184;-87
2023/07/25 05:13:00;;;;;;;2.95;1.55;;;18.10;99.90;;;;;;5072737;28;20196;-87
2023/07/25 05:15:31;;;;;;;2.40;1.38;;;18.10;99.90;;;;;;5078688;28;20219;-87
2023/07/25 05:18:02;;;;;;;3.47;1.90;;;18.00;99.90;;;;;;5079599;28;20207;-87
2023/07/25 05:20:33;;;;;;;3.33;1.67;;;18.00;99.90;;;;;;5074264;28;20216;-87
2023/07/25 05:23:06;;;;;;;4.63;1.65;;;18.00;99.90;;;;;;5074161;28;20188;-84
2023/07/25 05:25:36;;;;;;;3.22;2.05;;;18.00;99.90;;;;;;5093230;28;20301;-85
2023/07/25 05:28:09;;;;;;;6.32;2.33;;;18.00;99.90;;;;;;5108726;28;20305;-86
2023/07/25 05:30:41;;;;;;;3.78;1.95;;;18.10;99.90;;;;;;5108844;28;20243;-88
2023/07/25 05:33:13;;;;;;;3.55;2.03;;;18.20;99.90;;;;;;5099134;28;20196;-85
2023/07/25 05:35:45;;;;;;;3.83;2.03;;;18.20;99.90;;;;;;5083921;28;20230;-85
2023/07/25 05:38:16;;;;;;;3.33;1.80;;;18.20;99.90;;;;;;5078095;28;20192;-87
2023/07/25 05:40:47;;;;;;;5.13;1.85;;;18.30;99.90;;;;;;5071848;28;20624;-87
2023/07/25 05:43:22;;;;;;;3.65;2.08;;;18.40;99.90;;;;;;5085729;28;20223;-86
2023/07/25 05:45:53;;;;;;;3.17;1.63;;;18.40;99.90;;;;;;5073283;28;20310;-88
2023/07/25 05:48:23;;;;;;;3.47;1.90;;;18.50;99.90;;;;;;5073010;28;20210;-87
2023/07/25 05:50:55;;;;;;;3.13;1.77;;;18.50;99.90;;;;;;5073772;28;20585;-87
2023/07/25 05:53:26;;;;;;;4.32;1.70;;;18.50;99.90;;;;;;5085165;28;20234;-87
2023/07/25 05:55:58;;;;;;;2.45;1.65;;;18.50;99.90;;;;;;5093527;28;20310;-87
2023/07/25 05:58:31;;;;;;;2.67;1.90;;;18.50;99.90;;;;;;5093157;28;20183;-86
2023/07/25 06:01:05;;;;;;;3.25;1.70;;;18.50;99.90;;;;;;5093259;28;20278;-87
2023/07/25 06:03:36;;;;;;;4.18;2.10;;;18.60;99.90;;;;;;5081995;28;20281;-88
2023/07/25 06:06:07;;;;;;;3.50;1.48;;;18.60;99.90;;;;;;5073211;28;20243;-87
2023/07/25 06:08:39;;;;;;;3.42;1.80;;;18.50;99.90;;;;;;5080646;28;20191;-87
2023/07/25 06:11:10;;;;;;;2.75;1.63;;;18.60;99.90;;;;;;5086245;28;20562;-88
2023/07/25 06:13:44;;;;;;;3.00;1.65;;;18.50;99.90;;;;;;5077123;28;20219;-87
2023/07/25 06:16:15;;;;;;;2.63;1.70;;;18.50;99.90;;;;;;5093106;28;20219;-88
2023/07/25 06:18:46;;;;;;;3.72;1.98;;;18.60;99.90;;;;;;5093664;28;20211;-87
2023/07/25 06:21:17;;;;;;;4.00;1.67;;;18.60;99.90;;;;;;5093867;28;20281;-87
2023/07/25 06:23:48;;;;;;;3.33;1.88;;;18.60;99.90;;;;;;5101056;28;20201;-86
2023/07/25 06:26:19;;;;;;;2.38;1.40;;;18.60;99.90;;;;;;5088055;28;20180;-87
2023/07/25 06:28:52;;;;;;;4.70;1.90;;;18.60;99.90;;;;;;5079811;28;20235;-86
2023/07/25 06:31:23;;;;;;;2.53;1.77;;;18.50;99.90;;;;;;5072882;28;20192;-87
2023/07/25 06:33:55;;;;;;;7.97;2.10;;;18.50;99.90;;;;;;5072271;28;20195;-87
2023/07/25 06:36:27;;;;;;;2.35;1.58;;;18.40;99.90;;;;;;5072480;28;20753;-86
2023/07/25 06:38:58;;;;;;;2.83;1.48;;;18.40;99.90;;;;;;5072358;28;20194;-87
2023/07/25 06:41:29;;;;;;;4.07;1.80;;;18.30;99.90;;;;;;5071623;28;20298;-88
2023/07/25 06:44:02;;;;;;;3.88;1.77;;;18.20;99.90;;;;;;5092644;28;20207;-88
2023/07/25 06:46:33;;;;;;;1.92;1.50;;;18.10;99.90;;;;;;5098359;28;20211;-87
2023/07/25 06:49:05;;;;;;;3.80;1.88;;;18.00;99.90;;;;;;5114580;28;20298;-89
2023/07/25 06:51:36;;;;;;;2.15;1.70;;;17.80;99.90;;;;;;5106510;28;20195;-86
2023/07/25 06:54:07;;;;;;;3.35;1.90;;;17.80;99.90;;;;;;5098065;28;20255;-88
2023/07/25 06:56:38;;;;;;;3.47;1.55;;;17.80;99.90;;;;;;5092173;28;20223;-87
2023/07/25 06:59:11;;;;;;;2.85;1.75;;;17.70;99.90;;;;;;5084364;28;20274;-88
2023/07/25 07:01:42;;;;;;;3.22;1.77;;;17.60;99.90;;;;;;5086834;28;20201;-88
2023/07/25 07:04:14;;;;;;;3.60;2.17;;;17.60;99.90;;;;;;5088896;28;20230;-88
2023/07/25 07:06:47;;;;;;;4.95;1.95;;;17.40;99.90;;;;;;5086437;28;20203;-88
2023/07/25 07:09:18;;;;;;;2.72;1.90;;;17.40;99.90;;;;;;5092776;28;20203;-89
2023/07/25 07:11:49;;;;;;;6.28;2.25;;;17.40;99.90;;;;;;5074737;28;20199;-89
2023/07/25 07:14:26;;;;;;;3.00;1.70;;;17.30;99.90;;;;;;5072231;28;20210;-89
2023/07/25 07:16:58;;;;;;;4.00;1.95;;;17.30;99.90;;;;;;5071704;28;20224;-88
2023/07/25 07:19:28;;;;;;;5.07;2.28;;;17.20;99.90;;;;;;5073785;28;20242;-87
2023/07/25 07:22:00;;;;;;;3.55;1.80;;;17.20;99.90;;;;;;5092045;28;20266;-86
2023/07/25 07:24:32;;;;;;;2.42;1.73;;;17.20;99.90;;;;;;5094717;28;20285;-86
2023/07/25 07:27:03;;;;;;;5.15;2.10;;;17.10;99.90;;;;;;5095199;28;20222;-86
2023/07/25 07:29:35;;;;;;;4.80;2.33;;;17.10;99.90;;;;;;5084026;28;20650;-88
2023/07/25 07:32:07;;;;;;;3.50;1.70;;;17.10;99.90;;;;;;5083873;28;20662;-87
2023/07/25 07:34:38;;;;;;;3.25;2.08;;;17.00;99.90;;;;;;5095303;28;20209;-87
2023/07/25 07:37:11;;;;;;;3.58;2.20;;;17.00;99.90;;;;;;5078423;28;20249;-87
2023/07/25 07:39:41;;;;;;;3.92;2.10;;;16.90;99.90;;;;;;5075754;28;20202;-87
2023/07/25 07:42:12;;;;;;;6.85;2.00;;;16.90;99.90;;;;;;5076491;28;20267;-88
2023/07/25 07:44:49;;;;;;;6.68;2.15;;;16.80;99.90;;;;;;5076279;28;20717;-87
2023/07/25 07:47:20;;;;;;;4.20;2.00;;;16.80;99.90;;;;;;5077158;28;20184;-85
2023/07/25 07:49:51;;;;;;;2.97;1.90;;;16.80;99.90;;;;;;5076333;28;20195;-86
2023/07/25 07:52:24;;;;;;;2.30;2.10;;;16.70;99.90;;;;;;5077052;28;20210;-86
2023/07/25 07:54:55;;;;;;;5.75;2.28;;;16.70;99.90;;;;;;5081965;28;20238;-88
2023/07/25 07:57:26;;;;;;;5.22;2.38;;;16.70;99.90;;;;;;5097278;28;20310;-87
2023/07/25 08:00:01;;;;;;;3.95;2.33;;;16.60;99.90;;;;;;5110799;28;20183;-86
2023/07/25 08:02:34;;;;;;;4.00;2.40;;;16.60;99.90;;;;;;5113754;28;20237;-86
2023/07/25 08:05:04;;;;;;;4.05;1.90;;;16.50;99.90;;;;;;5114938;28;20250;-87
2023/07/25 08:07:35;;;;;;;3.60;2.72;;;16.50;99.90;;;;;;5113755;28;20210;-85
2023/07/25 08:10:07;;;;;;;3.97;2.60;;;16.50;99.90;;;;;;5092546;28;20187;-86
2023/07/25 08:12:38;;;;;;;4.07;2.70;;;16.50;99.90;;;;;;5085192;28;20196;-86
2023/07/25 08:15:12;;;;;;;4.45;2.60;;;16.50;99.90;;;;;;5085964;28;20733;-86
2023/07/25 08:17:43;;;;;;;5.10;3.13;;;16.50;99.90;;;;;;5097904;28;20214;-87
2023/07/25 08:20:15;;;;;;;6.40;3.05;;;16.50;99.90;;;;;;5097919;28;20193;-85
2023/07/25 08:22:49;;;;;;;8.65;4.72;;;16.50;99.90;;;;;;5096112;28;20195;-88
2023/07/25 08:25:19;;;;;;;6.38;4.10;;;16.40;99.90;;;;;;5091022;28;20192;-86
2023/07/25 08:27:50;;;;;;;6.00;3.80;;;16.40;99.90;;;;;;5080827;28;20196;-86
2023/07/25 08:30:23;;;;;;;5.38;4.10;;;16.40;99.90;;;;;;5075880;28;20200;-86
2023/07/25 08:32:54;;;;;;;5.32;3.80;;;16.40;99.90;;;;;;5077323;28;20573;-85
2023/07/25 08:35:25;;;;;;;4.85;3.53;;;16.40;99.90;;;;;;5080468;28;20672;-86
2023/07/25 08:37:56;;;;;;;6.65;3.88;;;16.40;99.90;;;;;;5094476;28;20304;-84
2023/07/25 08:40:27;;;;;;;5.93;3.70;;;16.40;99.90;;;;;;5095420;28;20198;-86
2023/07/25 08:43:04;;;;;;;5.78;3.22;;;16.30;99.90;;;;;;5094171;28;20252;-86
2023/07/25 08:45:40;;;;;;;4.35;3.00;;;16.30;99.90;;;;;;5096650;28;20201;-87
2023/07/25 08:48:15;;;;;;;5.07;3.25;;;16.30;99.90;;;;;;5096994;28;20290;-87
2023/07/25 08:50:53;;;;;;;5.40;2.90;;;16.30;99.90;;;;;;5095925;28;20191;-89
2023/07/25 08:53:25;;;;;;;4.43;2.70;;;16.30;99.90;;;;;;5087320;28;20227;-88
2023/07/25 08:55:58;;;;;;;7.10;3.63;;;16.30;99.90;;;;;;5074653;28;20185;-86
2023/07/25 08:58:30;;;;;;;7.95;4.05;;;16.20;99.90;;;;;;5074523;28;20273;-87
2023/07/25 09:01:03;;;;;;;6.55;4.63;;;16.20;99.90;;;;;;5076276;28;20578;-86
2023/07/25 09:03:35;;;;;;;10.90;5.82;;;16.20;99.90;;;;;;5074325;28;20267;-86
2023/07/25 09:06:06;;;;;;;10.00;5.47;;;16.10;99.90;;;;;;5093871;28;20666;-87
2023/07/25 09:08:37;;;;;;;9.73;6.60;;;16.10;99.90;;;;;;5080870;28;20222;-88
2023/07/25 09:11:10;;;;;;;11.63;6.93;;;16.10;99.90;;;;;;5089430;28;20221;-88
2023/07/25 09:13:41;;;;;;;11.57;7.35;;;16.10;99.90;;;;;;5093565;28;20199;-87
2023/07/25 09:16:14;;;;;;;8.82;6.70;;;16.10;99.90;;;;;;5092339;28;20191;-84
2023/07/25 09:18:45;;;;;;;11.13;6.07;;;16.10;99.90;;;;;;5083056;28;20210;-86
2023/07/25 09:21:18;;;;;;;9.73;5.47;;;16.00;99.90;;;;;;5073773;28;20673;-87
2023/07/25 09:23:55;;;;;;;7.47;5.00;;;16.00;99.90;;;;;;5083096;28;20202;-86
2023/07/25 09:26:29;;;;;;;5.47;4.45;;;16.00;99.90;;;;;;5082623;28;20184;-88
2023/07/25 09:29:00;;;;;;;9.60;4.72;;;16.00;99.90;;;;;;5082098;28;20719;-86
2023/07/25 09:31:33;;;;;;;9.35;5.05;;;16.00;99.90;;;;;;5074501;28;20188;-87
2023/07/25 09:34:04;;;;;;;8.85;5.07;;;16.00;99.90;;;;;;5072106;28;20191;-86
2023/07/25 09:36:35;;;;;;;9.85;4.85;;;16.00;99.90;;;;;;5091175;28;20278;-86
2023/07/25 09:39:07;;;;;;;7.32;4.38;;;16.00;99.90;;;;;;5095039;28;20184;-87
2023/07/25 09:41:42;;;;;;;5.63;3.70;;;16.00;99.90;;;;;;5074122;28;20551;-87
2023/07/25 09:44:13;;;;;;;5.72;3.83;;;16.00;99.90;;;;;;5073392;28;20188;-87
2023/07/25 09:46:54;;;;;;;7.43;4.70;;;15.90;99.90;;;;;;5076512;28;20191;-85
2023/07/25 09:49:27;;;;;;;86.63;71.00;;;15.90;99.90;;;;;;5081254;28;20199;-87
2023/07/25 09:52:04;;;;;;;67.10;53.65;;;15.90;99.90;;;;;;5073353;28;20200;-87
2023/07/25 09:54:34;;;;;;;48.22;40.60;;;15.80;99.90;;;;;;5072849;28;20200;-87
2023/07/25 09:57:05;;;;;;;32.55;25.92;;;15.80;99.90;;;;;;5072515;28;20216;-88
2023/07/25 09:59:37;;;;;;;35.00;28.67;;;15.80;99.90;;;;;;5073768;28;20620;-85
2023/07/25 10:02:10;;;;;;;27.30;19.40;;;15.80;99.90;;;;;;5072832;28;20682;-87
2023/07/25 10:04:42;;;;;;;13.70;11.30;;;15.80;99.90;;;;;;5083822;28;20204;-88
2023/07/25 10:07:18;;;;;;;13.38;10.32;;;15.70;99.90;;;;;;5077149;28;20191;-87
2023/07/25 10:09:50;;;;;;;11.93;8.43;;;15.70;99.90;;;;;;5084463;28;20259;-89
2023/07/25 10:12:21;;;;;;;14.82;8.13;;;15.70;99.90;;;;;;5074465;28;20386;-87
2023/07/25 10:14:52;;;;;;;9.35;6.95;;;15.80;99.90;;;;;;5073354;28;20208;-85
2023/07/25 10:17:26;;;;;;;9.80;6.00;;;15.70;99.90;;;;;;5073021;28;20219;-87
2023/07/25 10:19:58;;;;;;;8.27;5.38;;;15.70;99.90;;;;;;5073403;28;20282;-87
2023/07/25 10:22:40;;;;;;;8.32;5.30;;;15.70;99.90;;;;;;5073912;28;20569;-86
2023/07/25 10:25:13;;;;;;;8.73;5.18;;;15.70;99.90;;;;;;5072832;28;20228;-86
2023/07/25 10:27:44;;;;;;;7.55;4.57;;;15.60;99.90;;;;;;5091907;28;20199;-86
2023/07/25 10:30:28;;;;;;;8.35;5.10;;;15.70;99.90;;;;;;5093875;28;20191;-87
2023/07/25 10:33:04;;;;;;;7.80;5.38;;;15.60;99.90;;;;;;5094284;28;20607;-87
2023/07/25 10:35:49;;;;;;;6.95;4.90;;;15.60;99.90;;;;;;5094749;28;20679;-87
2023/07/25 10:38:26;;;;;;;7.00;4.28;;;15.60;99.90;;;;;;5094614;28;20219;-86
2023/07/25 10:40:58;;;;;;;6.53;3.90;;;15.60;99.90;;;;;;5088983;28;20199;-87
2023/07/25 10:43:55;;;;;;;6.43;3.92;;;15.50;99.90;;;;;;5083325;28;20196;-87
2023/07/25 10:46:32;;;;;;;6.03;3.90;;;15.50;99.90;;;;;;5082356;28;20196;-87
2023/07/25 10:49:06;;;;;;;8.88;4.47;;;15.50;99.90;;;;;;5076242;28;20298;-88
2023/07/25 10:51:56;;;;;;;7.30;5.65;;;15.40;99.90;;;;;;5072260;28;20196;-86
2023/07/25 10:54:28;;;;;;;17.52;15.73;;;15.40;99.90;;;;;;5071847;28;20249;-87
2023/07/25 10:57:14;;;;;;;21.38;16.85;;;15.40;99.90;;;;;;5071873;28;20231;-87
2023/07/25 11:00:03;;;;;;;17.13;14.20;;;15.30;99.90;;;;;;5075504;28;20269;-88
2023/07/25 11:02:43;;;;;;;13.25;10.13;;;15.20;99.90;;;;;;5079011;28;20227;-87
2023/07/25 11:05:29;;;;;;;17.13;13.48;;;15.10;99.90;;;;;;5081339;28;20273;-86
2023/07/25 11:07:59;;;;;;;11.98;9.75;;;15.00;99.90;;;;;;5117723;28;20191;-84
2023/07/25 11:10:31;;;;;;;12.80;10.32;;;15.10;99.90;;;;;;5096844;28;20199;-87
2023/07/25 11:13:04;;;;;;;14.05;10.20;;;15.10;99.90;;;;;;5080756;28;20685;-87
2023/07/25 11:15:35;;;;;;;11.30;8.32;;;15.10;99.90;;;;;;5076729;28;20200;-86
2023/07/25 11:18:09;;;;;;;10.80;8.77;;;15.10;99.90;;;;;;5089773;28;20792;-84
2023/07/25 11:20:43;;;;;;;13.77;9.93;;;15.00;99.90;;;;;;5097174;28;20203;-88
2023/07/25 11:23:14;;;;;;;16.48;10.98;;;14.90;99.90;;;;;;5093304;28;20308;-84
2023/07/25 11:25:56;;;;;;;11.48;9.25;;;14.90;99.90;;;;;;5083575;28;20176;-88
2023/07/25 11:28:27;;;;;;;11.73;8.07;;;14.90;99.90;;;;;;5075523;28;20196;-84
2023/07/25 11:30:58;;;;;;;10.48;7.07;;;14.90;99.90;;;;;;5080244;28;20215;-85
2023/07/25 11:33:38;;;;;;;8.15;7.15;;;14.80;99.90;;;;;;5083629;28;20200;-87
2023/07/25 11:36:11;;;;;;;10.48;8.20;;;14.90;99.90;;;;;;5075738;28;20208;-85
2023/07/25 11:38:42;;;;;;;9.15;7.90;;;14.80;99.90;;;;;;5073941;28;20232;-84
2023/07/25 11:41:13;;;;;;;10.52;7.45;;;14.80;99.90;;;;;;5074090;28;20180;-85
2023/07/25 11:43:44;;;;;;;10.98;8.00;;;14.80;99.90;;;;;;5079014;28;20211;-85
2023/07/25 11:46:19;;;;;;;12.63;7.15;;;14.80;99.90;;;;;;5090546;28;20219;-85
2023/07/25 11:48:52;;;;;;;8.35;6.80;;;14.70;99.90;;;;;;5076293;28;20210;-85
2023/07/25 11:51:25;;;;;;;11.43;6.70;;;14.70;99.90;;;;;;5087583;28;20317;-85
2023/07/25 11:53:57;;;;;;;10.07;6.35;;;14.70;99.90;;;;;;5095496;28;20199;-88
2023/07/25 11:56:28;;;;;;;9.43;6.05;;;14.70;99.90;;;;;;5094882;28;20285;-85
2023/07/25 11:59:01;;;;;;;9.25;6.35;;;14.70;99.90;;;;;;5097521;28;20222;-84
2023/07/25 12:01:32;;;;;;;7.05;5.47;;;14.70;99.90;;;;;;5101306;28;20254;-85
2023/07/25 12:04:04;;;;;;;9.43;5.70;;;14.60;99.90;;;;;;5089760;28;20312;-85
2023/07/25 12:06:37;;;;;;;8.82;5.88;;;14.60;99.90;;;;;;5095301;28;20248;-85
2023/07/25 12:09:08;;;;;;;8.55;5.55;;;14.60;99.90;;;;;;5093198;28;20235;-86
2023/07/25 12:11:45;;;;;;;13.57;6.20;;;14.50;99.90;;;;;;5074043;28;20191;-85
2023/07/25 12:14:16;;;;;;;9.88;6.28;;;14.50;99.90;;;;;;5074128;28;20187;-86
2023/07/25 12:16:48;;;;;;;8.13;5.80;;;14.50;99.90;;;;;;5074691;28;20211;-86
2023/07/25 12:19:20;;;;;;;8.80;5.57;;;14.50;99.90;;;;;;5074358;28;20246;-86
2023/07/25 12:21:53;;;;;;;9.98;5.63;;;14.50;99.90;;;;;;5074110;28;20669;-84
2023/07/25 12:24:24;;;;;;;6.10;5.43;;;14.50;99.90;;;;;;5074259;28;20196;-86
2023/07/25 12:26:55;;;;;;;10.52;6.35;;;14.50;99.90;;;;;;5073769;28;20184;-86
2023/07/25 12:29:27;;;;;;;9.38;5.93;;;14.50;99.90;;;;;;5090202;28;20203;-86
2023/07/25 12:31:58;;;;;;;7.20;5.65;;;14.50;99.90;;;;;;5083480;28;20187;-86
2023/07/25 12:34:29;;;;;;;6.78;5.00;;;14.40;99.90;;;;;;5076382;28;20233;-85
2023/07/25 12:37:02;;;;;;;7.25;5.88;;;14.40;99.90;;;;;;5095171;28;20204;-85
2023/07/25 12:39:33;;;;;;;8.32;5.80;;;14.40;99.90;;;;;;5084117;28;20215;-86
2023/07/25 12:42:04;;;;;;;9.43;6.20;;;14.40;99.90;;;;;;5075441;28;20203;-86
2023/07/25 12:44:36;;;;;;;10.43;6.25;;;14.30;99.90;;;;;;5074350;28;20194;-86
2023/07/25 12:47:07;;;;;;;10.07;6.10;;;14.30;99.90;;;;;;5074502;28;20639;-86
2023/07/25 12:49:38;;;;;;;7.28;5.90;;;14.20;99.90;;;;;;5075458;28;20196;-85
2023/07/25 12:52:11;;;;;;;10.57;6.32;;;14.20;99.90;;;;;;5084354;28;20547;-85
2023/07/25 12:54:42;;;;;;;8.73;5.82;;;14.10;99.90;;;;;;5073381;28;20285;-86
2023/07/25 12:57:13;;;;;;;8.63;5.97;;;14.10;99.90;;;;;;5079444;28;20574;-86
2023/07/25 12:59:44;;;;;;;6.70;5.70;;;14.10;99.90;;;;;;5082110;28;20324;-87
2023/07/25 13:02:15;;;;;;;9.10;5.80;;;14.10;99.90;;;;;;5072657;28;20310;-84
2023/07/25 13:04:45;;;;;;;8.00;5.75;;;14.00;99.90;;;;;;5079642;28;20198;-87
2023/07/25 13:07:18;;;;;;;8.40;6.03;;;14.00;99.90;;;;;;5091452;28;20244;-86
2023/07/25 13:09:53;;;;;;;9.57;5.75;;;14.00;99.90;;;;;;5092917;28;20678;-85
2023/07/25 13:12:24;;;;;;;8.30;6.15;;;14.00;99.90;;;;;;5092867;28;20217;-83